sensor_id;sensor_type;location;lat;lon;timestamp;temperature;humidity
75821;DHT22;64454;51.984;9.838;2023-10-19T00:02:44;9.90;37.20
75821;DHT22;64454;51.984;9.838;2023-10-19T00:05:11;9.80;40.50
75821;DHT22;64454;51.984;9.838;2023-10-19T00:07:40;9.80;58.80
75821;DHT22;64454;51.984;9.838;2023-10-19T00:10:06;9.80;76.70
75821;DHT22;64454;51.984;9.838;2023-10-19T00:12:33;9.80;99.20
75821;DHT22;64454;51.984;9.838;2023-10-19T00:14:59;9.80;99.90
75821;DHT22;64454;51.984;9.838;2023-10-19T00:17:29;9.80;98.00
75821;DHT22;64454;51.984;9.838;2023-10-19T00:19:58;9.80;99.90
75821;DHT22;64454;51.984;9.838;2023-10-19T00:22:45;9.80;99.90
75821;DHT22;64454;51.984;9.838;2023-10-19T00:25:11;9.90;99.90
75821;DHT22;64454;51.984;9.838;2023-10-19T00:27:39;9.90;99.90
75821;DHT22;64454;51.984;9.838;2023-10-19T00:30:09;9.80;99.90
75821;DHT22;64454;51.984;9.838;2023-10-19T00:32:37;9.70;99.90
75821;DHT22;64454;51.984;9.838;2023-10-19T00:35:05;9.70;99.90
75821;DHT22;64454;51.984;9.838;2023-10-19T00:37:46;9.80;99.90
75821;DHT22;64454;51.984;9.838;2023-10-19T00:40:13;9.80;99.90
75821;DHT22;64454;51.984;9.838;2023-10-19T00:42:45;9.90;99.90
75821;DHT22;64454;51.984;9.838;2023-10-19T00:45:15;10.00;99.90
75821;DHT22;64454;51.984;9.838;2023-10-19T00:47:50;10.00;99.90
75821;DHT22;64454;51.984;9.838;2023-10-19T00:50:18;10.10;99.90
75821;DHT22;64454;51.984;9.838;2023-10-19T00:52:48;10.20;99.90
75821;DHT22;64454;51.984;9.838;2023-10-19T00:55:16;10.30;99.90
75821;DHT22;64454;51.984;9.838;2023-10-19T00:57:44;10.40;99.90
75821;DHT22;64454;51.984;9.838;2023-10-19T01:00:15;10.40;96.40
75821;DHT22;64454;51.984;9.838;2023-10-19T01:02:51;10.40;81.60
75821;DHT22;64454;51.984;9.838;2023-10-19T01:05:25;10.50;79.90
75821;DHT22;64454;51.984;9.838;2023-10-19T01:07:57;10.60;72.50
75821;DHT22;64454;51.984;9.838;2023-10-19T01:10:28;10.80;79.70
75821;DHT22;64454;51.984;9.838;2023-10-19T01:12:56;10.80;59.50
75821;DHT22;64454;51.984;9.838;2023-10-19T01:15:25;10.90;47.00
75821;DHT22;64454;51.984;9.838;2023-10-19T01:17:56;10.90;36.10
75821;DHT22;64454;51.984;9.838;2023-10-19T01:20:25;10.80;30.00
75821;DHT22;64454;51.984;9.838;2023-10-19T01:23:09;10.90;17.00
75821;DHT22;64454;51.984;9.838;2023-10-19T01:25:47;10.90;16.80
75821;DHT22;64454;51.984;9.838;2023-10-19T01:28:16;10.90;19.20
75821;DHT22;64454;51.984;9.838;2023-10-19T01:30:44;10.80;20.80
75821;DHT22;64454;51.984;9.838;2023-10-19T01:33:12;10.80;26.60
75821;DHT22;64454;51.984;9.838;2023-10-19T01:35:39;10.80;33.60
75821;DHT22;64454;51.984;9.838;2023-10-19T01:38:21;10.90;48.90
75821;DHT22;64454;51.984;9.838;2023-10-19T01:40:47;11.00;46.80
75821;DHT22;64454;51.984;9.838;2023-10-19T01:43:14;11.10;26.70
75821;DHT22;64454;51.984;9.838;2023-10-19T01:45:46;11.10;11.20
75821;DHT22;64454;51.984;9.838;2023-10-19T01:48:12;11.10;6.70
75821;DHT22;64454;51.984;9.838;2023-10-19T01:50:38;10.90;12.10
75821;DHT22;64454;51.984;9.838;2023-10-19T01:53:05;10.90;22.10
75821;DHT22;64454;51.984;9.838;2023-10-19T01:55:39;10.90;32.10
75821;DHT22;64454;51.984;9.838;2023-10-19T01:58:05;10.90;34.90
75821;DHT22;64454;51.984;9.838;2023-10-19T02:00:31;11.00;37.50
75821;DHT22;64454;51.984;9.838;2023-10-19T02:02:57;11.00;34.80
75821;DHT22;64454;51.984;9.838;2023-10-19T02:05:23;11.00;39.20
75821;DHT22;64454;51.984;9.838;2023-10-19T02:07:49;11.10;47.70
75821;DHT22;64454;51.984;9.838;2023-10-19T02:10:15;11.20;53.30
75821;DHT22;64454;51.984;9.838;2023-10-19T02:12:42;11.30;38.80
75821;DHT22;64454;51.984;9.838;2023-10-19T02:15:09;11.40;30.70
75821;DHT22;64454;51.984;9.838;2023-10-19T02:17:35;11.40;18.80
75821;DHT22;64454;51.984;9.838;2023-10-19T02:20:02;11.40;16.70
75821;DHT22;64454;51.984;9.838;2023-10-19T02:22:43;11.40;12.10
75821;DHT22;64454;51.984;9.838;2023-10-19T02:25:09;11.20;12.40
75821;DHT22;64454;51.984;9.838;2023-10-19T02:27:36;11.20;16.10
75821;DHT22;64454;51.984;9.838;2023-10-19T02:30:04;11.10;24.50
75821;DHT22;64454;51.984;9.838;2023-10-19T02:32:31;10.90;33.00
75821;DHT22;64454;51.984;9.838;2023-10-19T02:34:58;10.80;47.50
75821;DHT22;64454;51.984;9.838;2023-10-19T02:37:27;10.70;71.90
75821;DHT22;64454;51.984;9.838;2023-10-19T02:39:53;10.60;99.90
75821;DHT22;64454;51.984;9.838;2023-10-19T02:42:19;10.70;99.90
75821;DHT22;64454;51.984;9.838;2023-10-19T02:44:47;10.60;99.90
75821;DHT22;64454;51.984;9.838;2023-10-19T02:47:16;10.60;99.90
75821;DHT22;64454;51.984;9.838;2023-10-19T02:49:42;10.50;99.90
75821;DHT22;64454;51.984;9.838;2023-10-19T02:52:09;10.50;99.90
75821;DHT22;64454;51.984;9.838;2023-10-19T02:54:41;10.60;99.90
75821;DHT22;64454;51.984;9.838;2023-10-19T02:57:07;10.50;99.90
75821;DHT22;64454;51.984;9.838;2023-10-19T02:59:37;10.50;99.90
75821;DHT22;64454;51.984;9.838;2023-10-19T03:02:04;10.60;99.90
75821;DHT22;64454;51.984;9.838;2023-10-19T03:04:34;10.60;99.90
75821;DHT22;64454;51.984;9.838;2023-10-19T03:07:01;10.50;99.90
75821;DHT22;64454;51.984;9.838;2023-10-19T03:09:28;10.60;99.90
75821;DHT22;64454;51.984;9.838;2023-10-19T03:11:56;10.60;99.90
75821;DHT22;64454;51.984;9.838;2023-10-19T03:14:25;10.50;99.90
75821;DHT22;64454;51.984;9.838;2023-10-19T03:16:51;10.50;99.90
75821;DHT22;64454;51.984;9.838;2023-10-19T03:19:19;10.40;99.90
75821;DHT22;64454;51.984;9.838;2023-10-19T03:21:46;10.30;99.90
75821;DHT22;64454;51.984;9.838;2023-10-19T03:24:15;10.20;99.90
75821;DHT22;64454;51.984;9.838;2023-10-19T03:26:49;10.10;99.90
75821;DHT22;64454;51.984;9.838;2023-10-19T03:29:15;10.10;99.90
75821;DHT22;64454;51.984;9.838;2023-10-19T03:31:48;10.10;99.90
75821;DHT22;64454;51.984;9.838;2023-10-19T03:34:14;10.20;99.90
75821;DHT22;64454;51.984;9.838;2023-10-19T03:36:42;10.10;99.90
75821;DHT22;64454;51.984;9.838;2023-10-19T03:39:09;10.10;99.90
75821;DHT22;64454;51.984;9.838;2023-10-19T03:41:38;10.00;99.90
75821;DHT22;64454;51.984;9.838;2023-10-19T03:44:07;10.00;99.90
75821;DHT22;64454;51.984;9.838;2023-10-19T03:46:39;9.90;99.90
75821;DHT22;64454;51.984;9.838;2023-10-19T03:49:18;10.00;99.90
75821;DHT22;64454;51.984;9.838;2023-10-19T03:51:45;10.00;99.90
75821;DHT22;64454;51.984;9.838;2023-10-19T03:54:24;10.10;99.90
75821;DHT22;64454;51.984;9.838;2023-10-19T03:56:50;10.10;99.90
75821;DHT22;64454;51.984;9.838;2023-10-19T03:59:17;10.10;99.90
75821;DHT22;64454;51.984;9.838;2023-10-19T04:01:44;10.10;99.90
75821;DHT22;64454;51.984;9.838;2023-10-19T04:04:10;10.10;99.90
75821;DHT22;64454;51.984;9.838;2023-10-19T04:06:36;10.20;99.90
75821;DHT22;64454;51.984;9.838;2023-10-19T04:09:03;10.20;99.90
75821;DHT22;64454;51.984;9.838;2023-10-19T04:11:31;10.20;99.90
75821;DHT22;64454;51.984;9.838;2023-10-19T04:13:58;10.20;99.90
75821;DHT22;64454;51.984;9.838;2023-10-19T04:16:29;10.20;99.90
75821;DHT22;64454;51.984;9.838;2023-10-19T04:18:55;10.20;99.90
75821;DHT22;64454;51.984;9.838;2023-10-19T04:21:21;10.20;99.90
75821;DHT22;64454;51.984;9.838;2023-10-19T04:23:48;10.20;99.90
75821;DHT22;64454;51.984;9.838;2023-10-19T04:26:14;10.30;99.90
75821;DHT22;64454;51.984;9.838;2023-10-19T04:28:44;10.20;99.90
75821;DHT22;64454;51.984;9.838;2023-10-19T04:31:11;10.20;99.90
75821;DHT22;64454;51.984;9.838;2023-10-19T04:33:42;10.20;99.90
75821;DHT22;64454;51.984;9.838;2023-10-19T04:36:11;10.00;99.90
75821;DHT22;64454;51.984;9.838;2023-10-19T04:38:39;10.00;99.90
75821;DHT22;64454;51.984;9.838;2023-10-19T04:41:06;10.00;99.90
75821;DHT22;64454;51.984;9.838;2023-10-19T04:43:33;10.00;99.90
75821;DHT22;64454;51.984;9.838;2023-10-19T04:46:04;10.10;99.90
75821;DHT22;64454;51.984;9.838;2023-10-19T04:48:33;10.00;99.90
75821;DHT22;64454;51.984;9.838;2023-10-19T04:51:01;10.00;99.90
75821;DHT22;64454;51.984;9.838;2023-10-19T04:53:29;10.00;99.90
75821;DHT22;64454;51.984;9.838;2023-10-19T04:55:56;10.00;99.90
75821;DHT22;64454;51.984;9.838;2023-10-19T04:58:22;10.00;99.90
75821;DHT22;64454;51.984;9.838;2023-10-19T05:00:48;10.10;99.90
75821;DHT22;64454;51.984;9.838;2023-10-19T05:03:15;10.10;99.90
75821;DHT22;64454;51.984;9.838;2023-10-19T05:05:44;10.20;99.90
75821;DHT22;64454;51.984;9.838;2023-10-19T05:08:10;10.20;99.90
75821;DHT22;64454;51.984;9.838;2023-10-19T05:10:36;10.10;99.90
75821;DHT22;64454;51.984;9.838;2023-10-19T05:13:03;10.10;99.90
75821;DHT22;64454;51.984;9.838;2023-10-19T05:15:29;10.10;99.90
75821;DHT22;64454;51.984;9.838;2023-10-19T05:17:56;10.00;99.90
75821;DHT22;64454;51.984;9.838;2023-10-19T05:20:22;10.10;99.90
75821;DHT22;64454;51.984;9.838;2023-10-19T05:22:49;10.10;99.90
75821;DHT22;64454;51.984;9.838;2023-10-19T05:25:15;10.20;99.90
75821;DHT22;64454;51.984;9.838;2023-10-19T05:27:41;10.20;99.90
75821;DHT22;64454;51.984;9.838;2023-10-19T05:30:08;10.30;99.90
75821;DHT22;64454;51.984;9.838;2023-10-19T05:32:35;10.30;99.90
75821;DHT22;64454;51.984;9.838;2023-10-19T05:35:02;10.30;99.90
75821;DHT22;64454;51.984;9.838;2023-10-19T05:37:31;10.30;99.90
75821;DHT22;64454;51.984;9.838;2023-10-19T05:39:57;10.30;99.90
75821;DHT22;64454;51.984;9.838;2023-10-19T05:42:24;10.30;99.90
75821;DHT22;64454;51.984;9.838;2023-10-19T05:44:51;10.30;99.90
75821;DHT22;64454;51.984;9.838;2023-10-19T05:47:18;10.40;99.90
75821;DHT22;64454;51.984;9.838;2023-10-19T05:49:44;10.30;99.90
75821;DHT22;64454;51.984;9.838;2023-10-19T05:52:10;10.30;99.90
75821;DHT22;64454;51.984;9.838;2023-10-19T05:54:37;10.40;99.90
75821;DHT22;64454;51.984;9.838;2023-10-19T05:57:03;10.30;99.90
75821;DHT22;64454;51.984;9.838;2023-10-19T05:59:34;10.30;99.90
75821;DHT22;64454;51.984;9.838;2023-10-19T06:02:00;10.40;99.90
75821;DHT22;64454;51.984;9.838;2023-10-19T06:04:26;10.50;99.90
75821;DHT22;64454;51.984;9.838;2023-10-19T06:06:52;10.50;99.90
75821;DHT22;64454;51.984;9.838;2023-10-19T06:09:18;10.50;99.90
75821;DHT22;64454;51.984;9.838;2023-10-19T06:11:45;10.60;99.90
75821;DHT22;64454;51.984;9.838;2023-10-19T06:14:11;10.50;99.90
75821;DHT22;64454;51.984;9.838;2023-10-19T06:16:38;10.50;99.90
75821;DHT22;64454;51.984;9.838;2023-10-19T06:19:04;10.60;99.90
75821;DHT22;64454;51.984;9.838;2023-10-19T06:21:30;10.70;99.90
75821;DHT22;64454;51.984;9.838;2023-10-19T06:23:58;10.70;99.90
75821;DHT22;64454;51.984;9.838;2023-10-19T06:26:24;10.80;99.90
75821;DHT22;64454;51.984;9.838;2023-10-19T06:28:51;10.80;99.90
75821;DHT22;64454;51.984;9.838;2023-10-19T06:31:22;10.70;99.90
75821;DHT22;64454;51.984;9.838;2023-10-19T06:33:49;10.80;99.90
75821;DHT22;64454;51.984;9.838;2023-10-19T06:36:15;10.80;99.90
75821;DHT22;64454;51.984;9.838;2023-10-19T06:38:41;10.80;99.90
75821;DHT22;64454;51.984;9.838;2023-10-19T06:41:11;10.80;99.90
75821;DHT22;64454;51.984;9.838;2023-10-19T06:43:37;10.80;99.90
75821;DHT22;64454;51.984;9.838;2023-10-19T06:46:04;10.70;99.90
75821;DHT22;64454;51.984;9.838;2023-10-19T06:48:31;10.70;99.90
75821;DHT22;64454;51.984;9.838;2023-10-19T06:50:57;10.80;99.90
75821;DHT22;64454;51.984;9.838;2023-10-19T06:53:23;10.80;99.90
75821;DHT22;64454;51.984;9.838;2023-10-19T06:55:50;10.80;99.90
75821;DHT22;64454;51.984;9.838;2023-10-19T06:58:16;10.90;99.90
75821;DHT22;64454;51.984;9.838;2023-10-19T07:00:45;11.00;99.90
75821;DHT22;64454;51.984;9.838;2023-10-19T07:03:22;10.90;99.90
75821;DHT22;64454;51.984;9.838;2023-10-19T07:05:48;10.90;99.90
75821;DHT22;64454;51.984;9.838;2023-10-19T07:08:15;10.90;99.90
75821;DHT22;64454;51.984;9.838;2023-10-19T07:10:41;11.00;99.90
75821;DHT22;64454;51.984;9.838;2023-10-19T07:13:08;11.00;99.90
75821;DHT22;64454;51.984;9.838;2023-10-19T07:15:34;11.10;99.90
75821;DHT22;64454;51.984;9.838;2023-10-19T07:18:00;11.20;99.90
75821;DHT22;64454;51.984;9.838;2023-10-19T07:20:27;11.20;99.90
75821;DHT22;64454;51.984;9.838;2023-10-19T07:22:55;11.20;99.90
75821;DHT22;64454;51.984;9.838;2023-10-19T07:25:25;11.20;99.90
75821;DHT22;64454;51.984;9.838;2023-10-19T07:27:51;11.30;99.90
75821;DHT22;64454;51.984;9.838;2023-10-19T07:30:19;11.30;99.90
75821;DHT22;64454;51.984;9.838;2023-10-19T07:32:48;11.30;99.90
75821;DHT22;64454;51.984;9.838;2023-10-19T07:35:19;11.30;99.90
75821;DHT22;64454;51.984;9.838;2023-10-19T07:37:46;11.50;99.90
75821;DHT22;64454;51.984;9.838;2023-10-19T07:40:13;11.40;99.90
75821;DHT22;64454;51.984;9.838;2023-10-19T07:42:40;11.50;99.90
75821;DHT22;64454;51.984;9.838;2023-10-19T07:45:06;11.50;99.90
75821;DHT22;64454;51.984;9.838;2023-10-19T07:47:37;11.60;99.90
75821;DHT22;64454;51.984;9.838;2023-10-19T07:50:06;11.60;99.90
75821;DHT22;64454;51.984;9.838;2023-10-19T07:52:37;11.70;99.90
75821;DHT22;64454;51.984;9.838;2023-10-19T07:55:06;11.70;99.90
75821;DHT22;64454;51.984;9.838;2023-10-19T07:57:33;11.80;99.90
75821;DHT22;64454;51.984;9.838;2023-10-19T07:59:59;11.70;99.90
75821;DHT22;64454;51.984;9.838;2023-10-19T08:02:25;11.70;99.90
75821;DHT22;64454;51.984;9.838;2023-10-19T08:04:52;11.70;99.90
75821;DHT22;64454;51.984;9.838;2023-10-19T08:07:18;11.70;99.90
75821;DHT22;64454;51.984;9.838;2023-10-19T08:09:45;11.70;99.90
75821;DHT22;64454;51.984;9.838;2023-10-19T08:12:11;11.70;99.90
75821;DHT22;64454;51.984;9.838;2023-10-19T08:14:39;11.70;99.90
75821;DHT22;64454;51.984;9.838;2023-10-19T08:17:05;11.70;99.90
75821;DHT22;64454;51.984;9.838;2023-10-19T08:19:34;11.80;99.90
75821;DHT22;64454;51.984;9.838;2023-10-19T08:22:01;11.70;99.90
75821;DHT22;64454;51.984;9.838;2023-10-19T08:24:27;11.80;99.90
75821;DHT22;64454;51.984;9.838;2023-10-19T08:26:55;11.80;99.90
75821;DHT22;64454;51.984;9.838;2023-10-19T08:29:22;12.00;99.90
75821;DHT22;64454;51.984;9.838;2023-10-19T08:31:49;12.00;99.90
75821;DHT22;64454;51.984;9.838;2023-10-19T08:34:15;12.10;99.90
75821;DHT22;64454;51.984;9.838;2023-10-19T08:36:42;12.30;99.90
75821;DHT22;64454;51.984;9.838;2023-10-19T08:39:10;12.40;99.90
75821;DHT22;64454;51.984;9.838;2023-10-19T08:41:39;12.50;99.90
75821;DHT22;64454;51.984;9.838;2023-10-19T08:44:07;12.60;99.90
75821;DHT22;64454;51.984;9.838;2023-10-19T08:46:38;12.70;99.90
75821;DHT22;64454;51.984;9.838;2023-10-19T08:49:09;12.90;99.90
75821;DHT22;64454;51.984;9.838;2023-10-19T08:51:36;12.90;99.90
75821;DHT22;64454;51.984;9.838;2023-10-19T08:54:04;12.90;99.90
75821;DHT22;64454;51.984;9.838;2023-10-19T08:56:31;12.90;99.90
75821;DHT22;64454;51.984;9.838;2023-10-19T08:58:58;12.90;99.90
75821;DHT22;64454;51.984;9.838;2023-10-19T09:01:27;12.90;99.90
75821;DHT22;64454;51.984;9.838;2023-10-19T09:03:57;13.00;99.90
75821;DHT22;64454;51.984;9.838;2023-10-19T09:06:23;13.10;99.90
75821;DHT22;64454;51.984;9.838;2023-10-19T09:08:50;13.10;93.40
75821;DHT22;64454;51.984;9.838;2023-10-19T09:11:16;13.10;94.50
75821;DHT22;64454;51.984;9.838;2023-10-19T09:13:47;13.20;99.90
75821;DHT22;64454;51.984;9.838;2023-10-19T09:16:15;13.20;99.90
75821;DHT22;64454;51.984;9.838;2023-10-19T09:18:42;13.30;99.90
75821;DHT22;64454;51.984;9.838;2023-10-19T09:21:10;13.40;99.90
75821;DHT22;64454;51.984;9.838;2023-10-19T09:23:49;13.40;93.00
75821;DHT22;64454;51.984;9.838;2023-10-19T09:26:16;13.30;90.80
75821;DHT22;64454;51.984;9.838;2023-10-19T09:28:46;13.30;94.60
75821;DHT22;64454;51.984;9.838;2023-10-19T09:31:14;13.30;90.30
75821;DHT22;64454;51.984;9.838;2023-10-19T09:33:42;13.20;95.90
75821;DHT22;64454;51.984;9.838;2023-10-19T09:36:11;13.20;99.90
75821;DHT22;64454;51.984;9.838;2023-10-19T09:38:38;13.10;99.90
75821;DHT22;64454;51.984;9.838;2023-10-19T09:41:08;13.10;99.90
75821;DHT22;64454;51.984;9.838;2023-10-19T09:43:41;13.10;99.90
75821;DHT22;64454;51.984;9.838;2023-10-19T09:46:10;13.10;99.90
75821;DHT22;64454;51.984;9.838;2023-10-19T09:48:39;13.20;99.90
75821;DHT22;64454;51.984;9.838;2023-10-19T09:51:08;13.30;99.90
75821;DHT22;64454;51.984;9.838;2023-10-19T09:53:36;13.40;99.90
75821;DHT22;64454;51.984;9.838;2023-10-19T09:56:06;13.50;99.90
75821;DHT22;64454;51.984;9.838;2023-10-19T09:58:41;13.40;99.90
75821;DHT22;64454;51.984;9.838;2023-10-19T10:01:12;13.70;99.90
75821;DHT22;64454;51.984;9.838;2023-10-19T10:03:45;13.60;99.90
75821;DHT22;64454;51.984;9.838;2023-10-19T10:06:14;13.80;99.90
75821;DHT22;64454;51.984;9.838;2023-10-19T10:08:42;13.90;99.90
75821;DHT22;64454;51.984;9.838;2023-10-19T10:11:20;14.10;96.90
75821;DHT22;64454;51.984;9.838;2023-10-19T10:13:50;14.30;87.50
75821;DHT22;64454;51.984;9.838;2023-10-19T10:16:17;14.20;51.30
75821;DHT22;64454;51.984;9.838;2023-10-19T10:18:46;14.10;55.10
75821;DHT22;64454;51.984;9.838;2023-10-19T10:21:15;14.00;62.50
75821;DHT22;64454;51.984;9.838;2023-10-19T10:23:44;14.00;59.30
75821;DHT22;64454;51.984;9.838;2023-10-19T10:26:14;14.10;75.20
75821;DHT22;64454;51.984;9.838;2023-10-19T10:28:41;14.00;80.80
75821;DHT22;64454;51.984;9.838;2023-10-19T10:31:13;14.00;74.00
75821;DHT22;64454;51.984;9.838;2023-10-19T10:33:42;14.00;86.50
75821;DHT22;64454;51.984;9.838;2023-10-19T10:36:14;14.00;99.90
75821;DHT22;64454;51.984;9.838;2023-10-19T10:38:43;14.00;98.90
75821;DHT22;64454;51.984;9.838;2023-10-19T10:41:09;13.80;97.00
75821;DHT22;64454;51.984;9.838;2023-10-19T10:43:49;13.80;99.90
75821;DHT22;64454;51.984;9.838;2023-10-19T10:46:19;13.70;99.90
75821;DHT22;64454;51.984;9.838;2023-10-19T10:48:46;13.70;99.90
75821;DHT22;64454;51.984;9.838;2023-10-19T10:51:17;13.60;99.90
75821;DHT22;64454;51.984;9.838;2023-10-19T10:53:47;13.70;99.90
75821;DHT22;64454;51.984;9.838;2023-10-19T10:56:14;13.60;99.90
75821;DHT22;64454;51.984;9.838;2023-10-19T10:58:41;13.70;99.90
75821;DHT22;64454;51.984;9.838;2023-10-19T11:01:07;13.70;99.90
75821;DHT22;64454;51.984;9.838;2023-10-19T11:03:33;13.80;99.90
75821;DHT22;64454;51.984;9.838;2023-10-19T11:06:03;13.70;99.90
75821;DHT22;64454;51.984;9.838;2023-10-19T11:08:33;13.70;99.90
75821;DHT22;64454;51.984;9.838;2023-10-19T11:11:05;13.70;99.90
75821;DHT22;64454;51.984;9.838;2023-10-19T11:13:33;13.70;99.90
75821;DHT22;64454;51.984;9.838;2023-10-19T11:16:02;13.80;99.90
75821;DHT22;64454;51.984;9.838;2023-10-19T11:18:30;13.80;99.90
75821;DHT22;64454;51.984;9.838;2023-10-19T11:20:58;13.80;99.90
75821;DHT22;64454;51.984;9.838;2023-10-19T11:23:38;13.90;99.90
75821;DHT22;64454;51.984;9.838;2023-10-19T11:26:09;14.00;99.90
75821;DHT22;64454;51.984;9.838;2023-10-19T11:28:37;13.90;99.90
75821;DHT22;64454;51.984;9.838;2023-10-19T11:31:13;14.00;99.90
75821;DHT22;64454;51.984;9.838;2023-10-19T11:33:41;14.10;99.90
75821;DHT22;64454;51.984;9.838;2023-10-19T11:36:09;14.20;99.90
75821;DHT22;64454;51.984;9.838;2023-10-19T11:38:40;14.20;99.90
75821;DHT22;64454;51.984;9.838;2023-10-19T11:41:08;14.30;99.90
75821;DHT22;64454;51.984;9.838;2023-10-19T11:43:35;14.20;99.90
75821;DHT22;64454;51.984;9.838;2023-10-19T11:46:01;14.20;99.90
75821;DHT22;64454;51.984;9.838;2023-10-19T11:48:30;14.30;99.90
75821;DHT22;64454;51.984;9.838;2023-10-19T11:50:56;14.40;99.90
75821;DHT22;64454;51.984;9.838;2023-10-19T11:53:23;14.60;99.90
75821;DHT22;64454;51.984;9.838;2023-10-19T11:55:49;14.80;99.90
75821;DHT22;64454;51.984;9.838;2023-10-19T11:58:16;15.00;99.90
75821;DHT22;64454;51.984;9.838;2023-10-19T12:00:42;15.20;99.90
75821;DHT22;64454;51.984;9.838;2023-10-19T12:03:09;15.40;99.90
75821;DHT22;64454;51.984;9.838;2023-10-19T12:05:36;15.50;78.10
75821;DHT22;64454;51.984;9.838;2023-10-19T12:08:03;15.40;51.60
75821;DHT22;64454;51.984;9.838;2023-10-19T12:10:30;15.50;38.80
75821;DHT22;64454;51.984;9.838;2023-10-19T12:13:01;15.40;44.80
75821;DHT22;64454;51.984;9.838;2023-10-19T12:15:30;15.50;38.80
75821;DHT22;64454;51.984;9.838;2023-10-19T12:17:56;15.50;30.40
75821;DHT22;64454;51.984;9.838;2023-10-19T12:20:23;15.30;36.80
75821;DHT22;64454;51.984;9.838;2023-10-19T12:22:49;15.50;62.60
75821;DHT22;64454;51.984;9.838;2023-10-19T12:25:17;15.50;50.90
75821;DHT22;64454;51.984;9.838;2023-10-19T12:27:43;15.50;43.90
75821;DHT22;64454;51.984;9.838;2023-10-19T12:30:11;15.40;38.00
75821;DHT22;64454;51.984;9.838;2023-10-19T12:32:45;15.20;39.90
75821;DHT22;64454;51.984;9.838;2023-10-19T12:35:15;15.20;57.20
75821;DHT22;64454;51.984;9.838;2023-10-19T12:37:41;15.30;71.00
75821;DHT22;64454;51.984;9.838;2023-10-19T12:40:12;15.40;74.90
75821;DHT22;64454;51.984;9.838;2023-10-19T12:42:51;15.60;58.30
75821;DHT22;64454;51.984;9.838;2023-10-19T12:45:19;15.50;34.20
75821;DHT22;64454;51.984;9.838;2023-10-19T12:47:46;15.60;35.50
75821;DHT22;64454;51.984;9.838;2023-10-19T12:50:14;15.70;27.40
75821;DHT22;64454;51.984;9.838;2023-10-19T12:52:41;15.80;28.90
75821;DHT22;64454;51.984;9.838;2023-10-19T12:55:07;15.90;24.80
75821;DHT22;64454;51.984;9.838;2023-10-19T12:57:34;16.00;19.60
75821;DHT22;64454;51.984;9.838;2023-10-19T13:00:01;16.00;1.00
75821;DHT22;64454;51.984;9.838;2023-10-19T13:02:48;15.90;1.00
75821;DHT22;64454;51.984;9.838;2023-10-19T13:05:15;15.90;4.20
75821;DHT22;64454;51.984;9.838;2023-10-19T13:07:43;15.90;14.80
75821;DHT22;64454;51.984;9.838;2023-10-19T13:10:09;16.00;17.80
75821;DHT22;64454;51.984;9.838;2023-10-19T13:12:36;16.00;9.90
75821;DHT22;64454;51.984;9.838;2023-10-19T13:15:03;16.10;4.70
75821;DHT22;64454;51.984;9.838;2023-10-19T13:17:32;15.80;1.00
75821;DHT22;64454;51.984;9.838;2023-10-19T13:20:01;15.90;13.50
75821;DHT22;64454;51.984;9.838;2023-10-19T13:22:41;15.90;17.20
75821;DHT22;64454;51.984;9.838;2023-10-19T13:25:07;15.80;12.60
75821;DHT22;64454;51.984;9.838;2023-10-19T13:27:35;15.70;12.00
75821;DHT22;64454;51.984;9.838;2023-10-19T13:30:01;15.60;24.40
75821;DHT22;64454;51.984;9.838;2023-10-19T13:32:28;15.40;40.40
75821;DHT22;64454;51.984;9.838;2023-10-19T13:34:55;15.30;58.10
75821;DHT22;64454;51.984;9.838;2023-10-19T13:37:21;15.40;73.80
75821;DHT22;64454;51.984;9.838;2023-10-19T13:39:48;15.40;74.80
75821;DHT22;64454;51.984;9.838;2023-10-19T13:42:14;15.40;75.60
75821;DHT22;64454;51.984;9.838;2023-10-19T13:44:41;15.30;82.50
75821;DHT22;64454;51.984;9.838;2023-10-19T13:47:07;15.30;85.70
75821;DHT22;64454;51.984;9.838;2023-10-19T13:49:34;15.30;99.90
75821;DHT22;64454;51.984;9.838;2023-10-19T13:52:01;15.50;99.90
75821;DHT22;64454;51.984;9.838;2023-10-19T13:54:30;15.70;91.10
75821;DHT22;64454;51.984;9.838;2023-10-19T13:56:57;15.80;52.10
75821;DHT22;64454;51.984;9.838;2023-10-19T13:59:23;16.00;56.60
75821;DHT22;64454;51.984;9.838;2023-10-19T14:01:50;16.00;42.90
75821;DHT22;64454;51.984;9.838;2023-10-19T14:04:16;16.00;24.20
75821;DHT22;64454;51.984;9.838;2023-10-19T14:06:42;15.90;23.60
75821;DHT22;64454;51.984;9.838;2023-10-19T14:09:09;15.80;27.10
75821;DHT22;64454;51.984;9.838;2023-10-19T14:11:38;15.70;35.40
75821;DHT22;64454;51.984;9.838;2023-10-19T14:14:04;15.80;44.60
75821;DHT22;64454;51.984;9.838;2023-10-19T14:16:31;15.90;52.00
75821;DHT22;64454;51.984;9.838;2023-10-19T14:18:57;15.90;33.80
75821;DHT22;64454;51.984;9.838;2023-10-19T14:21:23;15.80;27.70
75821;DHT22;64454;51.984;9.838;2023-10-19T14:23:52;15.70;33.70
75821;DHT22;64454;51.984;9.838;2023-10-19T14:26:19;15.70;40.40
75821;DHT22;64454;51.984;9.838;2023-10-19T14:28:46;15.70;49.40
75821;DHT22;64454;51.984;9.838;2023-10-19T14:31:12;15.80;60.50
75821;DHT22;64454;51.984;9.838;2023-10-19T14:33:39;15.70;57.50
75821;DHT22;64454;51.984;9.838;2023-10-19T14:36:06;15.70;49.00
75821;DHT22;64454;51.984;9.838;2023-10-19T14:38:33;15.70;48.40
75821;DHT22;64454;51.984;9.838;2023-10-19T14:40:59;15.70;44.40
75821;DHT22;64454;51.984;9.838;2023-10-19T14:43:25;15.50;55.60
75821;DHT22;64454;51.984;9.838;2023-10-19T14:45:52;15.50;74.70
75821;DHT22;64454;51.984;9.838;2023-10-19T14:48:18;15.50;91.30
75821;DHT22;64454;51.984;9.838;2023-10-19T14:50:45;15.50;93.30
75821;DHT22;64454;51.984;9.838;2023-10-19T14:53:12;15.70;92.20
75821;DHT22;64454;51.984;9.838;2023-10-19T14:55:38;15.70;66.60
75821;DHT22;64454;51.984;9.838;2023-10-19T14:58:05;15.70;61.90
75821;DHT22;64454;51.984;9.838;2023-10-19T15:00:31;15.70;63.00
75821;DHT22;64454;51.984;9.838;2023-10-19T15:03:01;15.70;53.40
75821;DHT22;64454;51.984;9.838;2023-10-19T15:05:32;15.70;57.50
75821;DHT22;64454;51.984;9.838;2023-10-19T15:08:01;15.70;62.10
75821;DHT22;64454;51.984;9.838;2023-10-19T15:10:30;15.70;59.60
75821;DHT22;64454;51.984;9.838;2023-10-19T15:12:57;15.60;71.10
75821;DHT22;64454;51.984;9.838;2023-10-19T15:15:24;15.60;68.90
75821;DHT22;64454;51.984;9.838;2023-10-19T15:17:51;15.60;78.80
75821;DHT22;64454;51.984;9.838;2023-10-19T15:20:19;15.60;72.30
75821;DHT22;64454;51.984;9.838;2023-10-19T15:22:48;15.50;70.00
75821;DHT22;64454;51.984;9.838;2023-10-19T15:25:14;15.50;74.90
75821;DHT22;64454;51.984;9.838;2023-10-19T15:27:44;15.60;81.20
75821;DHT22;64454;51.984;9.838;2023-10-19T15:30:11;15.60;84.90
75821;DHT22;64454;51.984;9.838;2023-10-19T15:32:39;15.60;79.70
75821;DHT22;64454;51.984;9.838;2023-10-19T15:35:07;15.70;71.10
75821;DHT22;64454;51.984;9.838;2023-10-19T15:37:36;15.70;64.20
75821;DHT22;64454;51.984;9.838;2023-10-19T15:40:02;15.50;72.00